Time,TemperatureF,DewpointF,PressureIn,WindDirection,WindDirectionDegrees,WindSpeedMPH,WindSpeedGustMPH,Humidity,HourlyPrecipIn,Conditions,Clouds,dailyrainin,SoftwareType,DateUTC
2013-02-18 00:00:00,62.0,54.3,29.99,SE,146,11.5,11.6,76,0.00,CLR,,0.00,WeatherDisplay:10.37,2013-02-18 06:00:00,
2013-02-18 00:05:00,62.0,54.3,29.99,SE,146,16.1,16.1,76,0.00,CLR,,0.00,WeatherDisplay:10.37,2013-02-18 06:05:00,
2013-02-18 00:10:00,62.0,54.7,29.99,SSE,166,11.5,11.5,77,0.00,CLR,,0.00,WeatherDisplay:10.37,2013-02-18 06:10:00,
2013-02-18 00:15:00,62.0,54.7,29.99,SSE,151,11.5,11.5,77,0.00,CLR,,0.00,WeatherDisplay:10.37,2013-02-18 06:15:00,
2013-02-18 00:20:00,62.0,54.7,29.98,South,172,16.1,16.1,77,0.00,CLR,,0.00,WeatherDisplay:10.37,2013-02-18 06:20:00,
2013-02-18 00:25:00,62.0,54.7,29.98,SSE,159,18.4,18.4,77,0.00,CLR,,0.00,WeatherDisplay:10.37,2013-02-18 06:25:00,
2013-02-18 00:30:00,62.1,54.8,29.98,SSE,164,19.6,19.6,77,0.00,CLR,,0.00,WeatherDisplay:10.37,2013-02-18 06:30:00,
2013-02-18 00:35:00,62.2,54.9,29.98,SSE,149,19.6,19.6,77,0.00,CLR,,0.00,WeatherDisplay:10.37,2013-02-18 06:35:00,
2013-02-18 00:40:00,62.2,54.9,29.98,SSE,166,24.2,24.2,77,0.00,CLR,,0.00,WeatherDisplay:10.37,2013-02-18 06:40:00,
2013-02-18 00:45:00,62.2,54.9,29.98,SSE,150,16.0,16.0,77,0.00,CLR,,0.00,WeatherDisplay:10.37,2013-02-18 06:45:00,
2013-02-18 00:50:00,62.1,55.2,29.97,SSE,156,21.9,21.9,78,0.00,CLR,,0.00,WeatherDisplay:10.37,2013-02-18 06:50:00,
2013-02-18 00:55:00,62.1,55.2,29.97,SSE,154,13.8,15.7,78,0.00,CLR,,0.00,WeatherDisplay:10.37,2013-02-18 06:55:00,
2013-02-18 01:00:00,62.0,55.1,29.97,SSE,154,18.4,18.4,78,0.00,CLR,,0.00,WeatherDisplay:10.37,2013-02-18 07:00:00,
2013-02-18 01:05:00,62.0,55.1,29.97,South,173,19.6,19.6,78,0.00,CLR,,0.00,WeatherDisplay:10.37,2013-02-18 07:05:00,
2013-02-18 01:10:00,62.0,55.1,29.96,SSE,153,15.0,16.9,78,0.00,CLR,,0.00,WeatherDisplay:10.37,2013-02-18 07:10:00,
2013-02-18 01:15:00,62.0,55.1,29.96,SE,144,17.3,17.3,78,0.00,CLR,,0.00,WeatherDisplay:10.37,2013-02-18 07:15:00,
2013-02-18 01:20:00,62.0,55.1,29.96,SSE,166,17.3,17.3,78,0.00,CLR,,0.00,WeatherDisplay:10.37,2013-02-18 07:20:00,
2013-02-18 01:25:00,61.9,55.0,29.96,SSE,154,18.4,18.4,78,0.00,CLR,,0.00,WeatherDisplay:10.37,2013-02-18 07:25:00,
2013-02-18 01:30:00,61.9,55.0,29.96,SSE,152,16.0,16.0,78,0.00,CLR,,0.00,WeatherDisplay:10.37,2013-02-18 07:30:00,
2013-02-18 01:35:00,61.9,55.3,29.95,SE,145,16.1,16.1,79,0.00,CLR,,0.00,WeatherDisplay:10.37,2013-02-18 07:35:00,
2013-02-18 01:40:00,61.8,55.2,29.95,SSE,165,19.6,19.6,79,0.00,CLR,,0.00,WeatherDisplay:10.37,2013-02-18 07:40:00,
2013-02-18 01:45:00,61.8,55.2,29.95,SSE,162,19.6,19.6,79,0.00,CLR,,0.00,WeatherDisplay:10.37,2013-02-18 07:45:00,
2013-02-18 01:50:00,61.7,55.1,29.95,SSE,153,18.4,18.4,79,0.00,CLR,,0.00,WeatherDisplay:10.37,2013-02-18 07:50:00,
2013-02-18 01:55:00,61.7,55.1,29.95,SSE,149,19.6,19.6,79,0.00,CLR,,0.00,WeatherDisplay:10.37,2013-02-18 07:55:00,
2013-02-18 02:00:00,61.7,55.1,29.95,SSE,148,17.3,17.3,79,0.00,CLR,,0.00,WeatherDisplay:10.37,2013-02-18 08:00:00,
2013-02-18 02:05:00,61.7,55.1,29.94,SSE,163,16.1,16.1,79,0.00,CLR,,0.00,WeatherDisplay:10.37,2013-02-18 08:05:00,
2013-02-18 02:10:00,61.6,55.4,29.94,South,169,18.0,18.0,80,0.00,CLR,,0.00,WeatherDisplay:10.37,2013-02-18 08:10:00,
2013-02-18 02:15:00,61.5,55.3,29.94,SE,130,13.8,14.6,80,0.00,CLR,,0.00,WeatherDisplay:10.37,2013-02-18 08:15:00,
2013-02-18 02:20:00,61.5,55.3,29.94,SSE,154,16.0,16.0,80,0.00,CLR,,0.00,WeatherDisplay:10.37,2013-02-18 08:20:00,
2013-02-18 02:25:00,61.5,55.3,29.93,SSE,160,13.8,13.8,80,0.00,CLR,,0.00,WeatherDisplay:10.37,2013-02-18 08:25:00,
2013-02-18 02:30:00,61.6,55.4,29.93,SE,146,16.1,16.1,80,0.00,CLR,,0.00,WeatherDisplay:10.37,2013-02-18 08:30:00,
2013-02-18 02:35:00,61.6,55.4,29.94,SSE,159,11.5,11.5,80,0.00,CLR,,0.00,WeatherDisplay:10.37,2013-02-18 08:35:00,
2013-02-18 02:40:00,61.6,55.4,29.93,SSE,156,16.1,16.1,80,0.00,CLR,,0.00,WeatherDisplay:10.37,2013-02-18 08:40:00,
2013-02-18 02:45:00,61.7,55.5,29.93,South,181,13.8,13.8,80,0.00,CLR,,0.00,WeatherDisplay:10.37,2013-02-18 08:45:00,
2013-02-18 02:50:00,61.8,55.6,29.93,SSE,149,15.0,15.0,80,0.00,CLR,,0.00,WeatherDisplay:10.37,2013-02-18 08:50:00,
2013-02-18 02:55:00,61.8,55.6,29.93,SSE,167,20.7,20.7,80,0.00,CLR,,0.00,WeatherDisplay:10.37,2013-02-18 08:55:00,
2013-02-18 03:00:00,61.9,55.7,29.93,SSE,156,18.4,18.4,80,0.00,CLR,,0.00,WeatherDisplay:10.37,2013-02-18 09:00:00,
2013-02-18 03:05:00,61.9,55.7,29.93,SSE,159,19.6,19.6,80,0.00,CLR,,0.00,WeatherDisplay:10.37,2013-02-18 09:05:00,
2013-02-18 03:10:00,62.0,55.8,29.93,SSE,159,19.6,19.6,80,0.00,CLR,,0.00,WeatherDisplay:10.37,2013-02-18 09:10:00,
2013-02-18 03:15:00,62.1,55.9,29.92,SSE,162,17.3,17.3,80,0.00,CLR,,0.00,WeatherDisplay:10.37,2013-02-18 09:15:00,
2013-02-18 03:20:00,62.2,56.0,29.92,South,172,13.8,13.8,80,0.00,CLR,,0.00,WeatherDisplay:10.37,2013-02-18 09:20:00,
2013-02-18 03:25:00,62.3,56.0,29.92,South,176,15.0,15.0,80,0.00,CLR,,0.00,WeatherDisplay:10.37,2013-02-18 09:25:00,
2013-02-18 03:30:00,62.4,56.5,29.92,SSE,167,17.3,17.3,81,0.00,CLR,,0.00,WeatherDisplay:10.37,2013-02-18 09:30:00,
2013-02-18 03:35:00,62.5,56.6,29.92,South,191,19.6,19.6,81,0.00,CLR,,0.00,WeatherDisplay:10.37,2013-02-18 09:35:00,
2013-02-18 03:40:00,62.6,56.3,29.92,SSE,153,19.6,19.6,80,0.00,CLR,,0.00,WeatherDisplay:10.37,2013-02-18 09:40:00,
2013-02-18 03:45:00,62.7,56.4,29.92,South,186,20.7,20.7,80,0.00,CLR,,0.00,WeatherDisplay:10.37,2013-02-18 09:45:00,
2013-02-18 03:50:00,62.7,56.8,29.92,South,180,19.6,19.6,81,0.00,CLR,,0.00,WeatherDisplay:10.37,2013-02-18 09:50:00,
2013-02-18 03:55:00,62.8,56.9,29.92,SSE,166,21.9,21.9,81,0.00,CLR,,0.00,WeatherDisplay:10.37,2013-02-18 09:55:00,
2013-02-18 04:00:00,62.8,56.9,29.92,SSE,148,19.6,19.6,81,0.00,CLR,,0.00,WeatherDisplay:10.37,2013-02-18 10:00:00,
2013-02-18 04:05:00,62.8,56.9,29.92,SSE,160,18.4,18.4,81,0.00,CLR,,0.00,WeatherDisplay:10.37,2013-02-18 10:05:00,
2013-02-18 04:10:00,62.8,56.9,29.91,SE,146,18.4,18.4,81,0.00,CLR,,0.00,WeatherDisplay:10.37,2013-02-18 10:10:00,
2013-02-18 04:15:00,62.8,56.9,29.92,SSE,158,17.3,17.3,81,0.00,CLR,,0.00,WeatherDisplay:10.37,2013-02-18 10:15:00,
2013-02-18 04:20:00,62.8,56.9,29.92,SSE,160,18.0,18.0,81,0.00,CLR,,0.00,WeatherDisplay:10.37,2013-02-18 10:20:00,
2013-02-18 04:25:00,62.9,57.0,29.91,South,172,15.0,15.0,81,0.00,CLR,,0.00,WeatherDisplay:10.37,2013-02-18 10:25:00,
2013-02-18 04:30:00,62.8,56.9,29.91,SSE,150,15.0,15.0,81,0.00,CLR,,0.00,WeatherDisplay:10.37,2013-02-18 10:30:00,
2013-02-18 04:35:00,62.9,57.3,29.91,SSE,165,15.0,15.0,82,0.00,CLR,,0.00,WeatherDisplay:10.37,2013-02-18 10:35:00,
2013-02-18 04:40:00,63.0,57.1,29.91,SSE,154,15.0,15.0,81,0.00,CLR,,0.00,WeatherDisplay:10.37,2013-02-18 10:40:00,
2013-02-18 04:45:00,63.0,57.1,29.91,SSE,157,11.5,11.5,81,0.00,CLR,,0.00,WeatherDisplay:10.37,2013-02-18 10:45:00,
2013-02-18 04:50:00,63.0,57.4,29.91,South,173,20.7,20.7,82,0.00,CLR,,0.00,WeatherDisplay:10.37,2013-02-18 10:50:00,
2013-02-18 04:55:00,63.1,57.5,29.91,South,172,19.6,19.6,82,0.00,CLR,,0.00,WeatherDisplay:10.37,2013-02-18 10:55:00,
2013-02-18 05:00:00,63.1,57.5,29.91,SSE,163,20.7,20.7,82,0.00,CLR,,0.00,WeatherDisplay:10.37,2013-02-18 11:00:00,
2013-02-18 05:05:00,63.0,57.4,29.91,SSE,167,18.4,18.4,82,0.00,CLR,,0.00,WeatherDisplay:10.37,2013-02-18 11:05:00,
2013-02-18 05:10:00,63.0,57.4,29.91,SSE,154,17.3,17.3,82,0.00,CLR,,0.00,WeatherDisplay:10.37,2013-02-18 11:10:00,
2013-02-18 05:15:00,63.1,57.9,29.91,SSE,160,19.6,19.6,83,0.00,CLR,,0.00,WeatherDisplay:10.37,2013-02-18 11:15:00,
2013-02-18 05:20:00,63.2,57.6,29.91,SSE,156,17.3,17.3,82,0.00,CLR,,0.00,WeatherDisplay:10.37,2013-02-18 11:20:00,
2013-02-18 05:25:00,63.2,57.9,29.91,South,171,11.5,11.5,83,0.00,CLR,,0.00,WeatherDisplay:10.37,2013-02-18 11:25:00,
2013-02-18 05:30:00,63.2,57.9,29.91,SSE,150,19.6,19.6,83,0.00,CLR,,0.00,WeatherDisplay:10.37,2013-02-18 11:30:00,
2013-02-18 05:35:00,63.3,58.0,29.91,SSE,163,16.1,16.1,83,0.00,CLR,,0.00,WeatherDisplay:10.37,2013-02-18 11:35:00,
2013-02-18 05:40:00,63.3,58.0,29.90,SSE,150,13.8,13.8,83,0.00,CLR,,0.00,WeatherDisplay:10.37,2013-02-18 11:40:00,
2013-02-18 05:45:00,63.2,57.9,29.91,SSE,157,16.1,16.1,83,0.00,CLR,,0.00,WeatherDisplay:10.37,2013-02-18 11:45:00,
2013-02-18 05:50:00,63.2,58.3,29.91,South,171,16.1,16.1,84,0.00,CLR,,0.00,WeatherDisplay:10.37,2013-02-18 11:50:00,
2013-02-18 05:55:00,63.1,58.2,29.90,SSE,162,18.4,18.4,84,0.00,CLR,,0.00,WeatherDisplay:10.37,2013-02-18 11:55:00,
2013-02-18 06:00:00,63.1,58.2,29.90,SSE,162,12.7,12.7,84,0.00,CLR,,0.00,WeatherDisplay:10.37,2013-02-18 12:00:00,
2013-02-18 06:05:00,63.0,58.1,29.90,SSE,167,15.0,15.0,84,0.00,CLR,,0.00,WeatherDisplay:10.37,2013-02-18 12:05:00,
2013-02-18 06:10:00,63.0,58.1,29.90,SSE,160,13.8,13.8,84,0.00,CLR,,0.00,WeatherDisplay:10.37,2013-02-18 12:10:00,
2013-02-18 06:15:00,62.9,58.0,29.90,SSE,166,15.0,15.0,84,0.00,CLR,,0.00,WeatherDisplay:10.37,2013-02-18 12:15:00,
2013-02-18 06:20:00,62.8,58.2,29.90,South,169,15.0,15.0,85,0.00,CLR,,0.00,WeatherDisplay:10.37,2013-02-18 12:20:00,
2013-02-18 06:25:00,62.8,58.2,29.91,SSE,159,11.5,11.5,85,0.00,CLR,,0.00,WeatherDisplay:10.37,2013-02-18 12:25:00,
2013-02-18 06:30:00,62.7,58.1,29.90,SSE,160,15.0,15.0,85,0.00,CLR,,0.00,WeatherDisplay:10.37,2013-02-18 12:30:00,
2013-02-18 06:35:00,62.8,58.2,29.90,SSE,158,11.5,11.5,85,0.00,CLR,,0.00,WeatherDisplay:10.37,2013-02-18 12:35:00,
2013-02-18 06:40:00,62.9,58.3,29.90,SSE,156,12.7,12.7,85,0.00,CLR,,0.00,WeatherDisplay:10.37,2013-02-18 12:40:00,
2013-02-18 06:45:00,62.9,58.3,29.90,SSE,168,16.1,16.1,85,0.00,CLR,,0.00,WeatherDisplay:10.37,2013-02-18 12:45:00,
2013-02-18 06:50:00,62.9,58.3,29.90,South,171,17.3,17.3,85,0.00,CLR,,0.00,WeatherDisplay:10.37,2013-02-18 12:50:00,
2013-02-18 06:55:00,63.0,58.4,29.90,SSE,162,13.8,13.8,85,0.00,CLR,,0.00,WeatherDisplay:10.37,2013-02-18 12:55:00,
2013-02-18 07:00:00,62.9,58.6,29.90,SSE,148,13.8,13.8,86,0.00,CLR,,0.00,WeatherDisplay:10.37,2013-02-18 13:00:00,
2013-02-18 07:05:00,62.9,58.6,29.90,SSE,153,13.0,13.0,86,0.00,CLR,,0.00,WeatherDisplay:10.37,2013-02-18 13:05:00,
2013-02-18 07:10:00,62.9,58.6,29.90,SSE,165,12.7,12.7,86,0.00,CLR,,0.00,WeatherDisplay:10.37,2013-02-18 13:10:00,
2013-02-18 07:15:00,62.9,58.6,29.90,SSE,151,10.4,10.4,86,0.00,CLR,,0.00,WeatherDisplay:10.37,2013-02-18 13:15:00,
2013-02-18 07:20:00,63.0,58.7,29.90,SSE,156,11.5,11.5,86,0.00,CLR,,0.00,WeatherDisplay:10.37,2013-02-18 13:20:00,
2013-02-18 07:25:00,63.0,58.7,29.90,SSE,165,12.7,12.7,86,0.00,CLR,,0.00,WeatherDisplay:10.37,2013-02-18 13:25:00,
2013-02-18 07:30:00,63.0,58.7,29.90,SSE,163,16.1,16.1,86,0.00,CLR,,0.00,WeatherDisplay:10.37,2013-02-18 13:30:00,
2013-02-18 07:35:00,63.1,58.8,29.90,SSE,160,15.0,15.0,86,0.00,CLR,,0.00,WeatherDisplay:10.37,2013-02-18 13:35:00,
2013-02-18 07:40:00,63.2,58.9,29.90,South,191,13.8,13.8,86,0.00,CLR,,0.00,WeatherDisplay:10.37,2013-02-18 13:40:00,
2013-02-18 07:45:00,63.3,59.0,29.90,SE,144,13.8,13.8,86,0.00,CLR,,0.00,WeatherDisplay:10.37,2013-02-18 13:45:00,
2013-02-18 07:50:00,63.4,59.1,29.90,SSE,166,19.0,19.0,86,0.00,CLR,,0.00,WeatherDisplay:10.37,2013-02-18 13:50:00,
2013-02-18 07:56:00,63.6,59.3,29.90,South,183,18.4,18.4,86,0.00,CLR,,0.00,WeatherDisplay:10.37,2013-02-18 13:56:00,
2013-02-18 08:01:00,63.7,59.4,29.91,SSE,158,17.3,17.3,86,0.00,CLR,,0.00,WeatherDisplay:10.37,2013-02-18 14:01:00,
2013-02-18 08:06:00,63.6,59.7,29.91,SSE,152,13.8,13.8,87,0.00,CLR,,0.00,WeatherDisplay:10.37,2013-02-18 14:06:00,
2013-02-18 08:11:00,63.6,59.7,29.91,SSE,154,12.7,12.7,87,0.00,CLR,,0.00,WeatherDisplay:10.37,2013-02-18 14:11:00,
2013-02-18 08:16:00,63.6,59.7,29.91,SSE,151,13.8,13.8,87,0.00,CLR,,0.00,WeatherDisplay:10.37,2013-02-18 14:16:00,
2013-02-18 08:21:00,63.7,59.8,29.92,South,176,12.7,12.7,87,0.00,CLR,,0.00,WeatherDisplay:10.37,2013-02-18 14:21:00,
2013-02-18 08:26:00,63.9,60.0,29.91,SSE,156,15.0,15.0,87,0.00,CLR,,0.00,WeatherDisplay:10.37,2013-02-18 14:26:00,
2013-02-18 08:31:00,63.9,60.0,29.92,SSE,150,12.7,12.7,87,0.00,CLR,,0.00,WeatherDisplay:10.37,2013-02-18 14:31:00,
2013-02-18 08:36:00,64.1,60.2,29.92,SSE,156,10.4,10.4,87,0.00,CLR,,0.00,WeatherDisplay:10.37,2013-02-18 14:36:00,
2013-02-18 08:41:00,64.2,60.2,29.92,South,188,16.1,16.1,87,0.00,CLR,,0.00,WeatherDisplay:10.37,2013-02-18 14:41:00,
2013-02-18 08:46:00,64.3,60.3,29.93,SSE,159,19.6,19.6,87,0.00,CLR,,0.00,WeatherDisplay:10.37,2013-02-18 14:46:00,
2013-02-18 08:51:00,64.3,60.3,29.93,South,174,17.3,17.3,87,0.00,CLR,,0.00,WeatherDisplay:10.37,2013-02-18 14:51:00,
2013-02-18 08:56:00,64.4,60.4,29.93,SSE,165,12.7,12.7,87,0.00,CLR,,0.00,WeatherDisplay:10.37,2013-02-18 14:56:00,
2013-02-18 09:01:00,64.5,60.5,29.93,SE,141,16.1,16.1,87,0.00,CLR,,0.00,WeatherDisplay:10.37,2013-02-18 15:01:00,
2013-02-18 09:06:00,64.5,60.5,29.93,South,172,16.1,16.1,87,0.00,CLR,,0.00,WeatherDisplay:10.37,2013-02-18 15:06:00,
2013-02-18 09:11:00,64.7,60.7,29.93,SSE,162,17.3,17.3,87,0.00,CLR,,0.00,WeatherDisplay:10.37,2013-02-18 15:11:00,
2013-02-18 09:16:00,64.8,60.8,29.93,SSE,159,16.0,16.0,87,0.00,CLR,,0.00,WeatherDisplay:10.37,2013-02-18 15:16:00,
2013-02-18 09:21:00,65.0,60.7,29.93,SSE,160,11.5,12.0,86,0.00,CLR,,0.00,WeatherDisplay:10.37,2013-02-18 15:21:00,
2013-02-18 09:26:00,65.2,60.9,29.94,SSE,163,18.4,18.4,86,0.00,CLR,,0.00,WeatherDisplay:10.37,2013-02-18 15:26:00,
2013-02-18 09:31:00,65.5,61.2,29.94,SSE,165,12.0,12.0,86,0.00,CLR,,0.00,WeatherDisplay:10.37,2013-02-18 15:31:00,
2013-02-18 09:36:00,65.6,61.0,29.95,SSE,162,19.6,19.6,85,0.00,CLR,,0.00,WeatherDisplay:10.37,2013-02-18 15:36:00,
2013-02-18 09:41:00,65.6,61.3,29.95,SSE,150,12.7,13.2,86,0.00,CLR,,0.00,WeatherDisplay:10.37,2013-02-18 15:41:00,
2013-02-18 09:46:00,65.5,61.2,29.95,SSE,165,18.4,18.4,86,0.00,CLR,,0.00,WeatherDisplay:10.37,2013-02-18 15:46:00,
2013-02-18 09:51:00,65.4,61.1,29.94,South,191,16.1,16.1,86,0.00,CLR,,0.00,WeatherDisplay:10.37,2013-02-18 15:51:00,
2013-02-18 09:56:00,65.5,61.2,29.94,South,183,17.3,17.3,86,0.00,CLR,,0.00,WeatherDisplay:10.37,2013-02-18 15:56:00,
2013-02-18 10:01:00,65.8,61.5,29.94,South,172,18.4,18.4,86,0.00,CLR,,0.00,WeatherDisplay:10.37,2013-02-18 16:01:00,
2013-02-18 10:06:00,66.1,61.8,29.95,SSE,148,19.6,19.6,86,0.00,CLR,,0.00,WeatherDisplay:10.37,2013-02-18 16:06:00,
2013-02-18 10:11:00,66.4,61.8,29.95,SSE,156,18.4,18.4,85,0.00,CLR,,0.00,WeatherDisplay:10.37,2013-02-18 16:11:00,
2013-02-18 10:16:00,66.8,61.8,29.95,SSW,197,17.3,17.3,84,0.00,CLR,,0.00,WeatherDisplay:10.37,2013-02-18 16:16:00,
2013-02-18 10:21:00,66.9,61.6,29.95,South,188,16.1,16.1,83,0.00,CLR,,0.00,WeatherDisplay:10.37,2013-02-18 16:21:00,
2013-02-18 10:26:00,66.9,61.6,29.95,SSW,204,16.1,16.1,83,0.00,CLR,,0.00,WeatherDisplay:10.37,2013-02-18 16:26:00,
2013-02-18 10:31:00,67.1,61.8,29.95,South,179,18.4,18.4,83,0.00,CLR,,0.00,WeatherDisplay:10.37,2013-02-18 16:31:00,
2013-02-18 10:36:00,67.8,62.4,29.95,South,173,12.7,12.7,83,0.00,CLR,,0.00,WeatherDisplay:10.37,2013-02-18 16:36:00,
2013-02-18 10:41:00,67.8,61.8,29.96,South,173,17.3,17.3,81,0.00,CLR,,0.00,WeatherDisplay:10.37,2013-02-18 16:41:00,
2013-02-18 10:46:00,67.7,62.0,29.96,South,174,15.0,15.0,82,0.00,CLR,,0.00,WeatherDisplay:10.37,2013-02-18 16:46:00,
2013-02-18 10:51:00,67.9,61.9,29.96,SSW,202,13.8,13.8,81,0.00,CLR,,0.00,WeatherDisplay:10.37,2013-02-18 16:51:00,
2013-02-18 10:56:00,68.3,62.2,29.95,SW,215,11.5,11.5,81,0.00,CLR,,0.00,WeatherDisplay:10.37,2013-02-18 16:56:00,
2013-02-18 11:01:00,68.8,62.4,29.95,SSW,207,12.7,12.7,80,0.00,CLR,,0.00,WeatherDisplay:10.37,2013-02-18 17:01:00,
2013-02-18 11:06:00,69.1,62.3,29.95,SSW,195,15.0,15.0,79,0.00,CLR,,0.00,WeatherDisplay:10.37,2013-02-18 17:06:00,
2013-02-18 11:11:00,69.4,62.2,29.95,SSW,198,19.6,19.6,78,0.00,CLR,,0.00,WeatherDisplay:10.37,2013-02-18 17:11:00,
2013-02-18 11:16:00,69.1,61.9,29.96,SSW,204,17.3,17.3,78,0.00,CLR,,0.00,WeatherDisplay:10.37,2013-02-18 17:16:00,
2013-02-18 11:21:00,69.0,61.9,29.96,SSW,200,21.9,21.9,78,0.00,CLR,,0.00,WeatherDisplay:10.37,2013-02-18 17:21:00,
2013-02-18 11:26:00,69.2,62.0,29.96,SW,226,16.1,16.1,78,0.00,CLR,,0.00,WeatherDisplay:10.37,2013-02-18 17:26:00,
2013-02-18 11:32:00,69.5,62.3,29.96,SW,215,11.5,11.5,78,0.00,CLR,,0.00,WeatherDisplay:10.37,2013-02-18 17:32:00,
2013-02-18 11:37:00,69.6,62.1,29.95,SW,217,12.7,12.7,77,0.00,CLR,,0.00,WeatherDisplay:10.37,2013-02-18 17:37:00,
2013-02-18 11:42:00,69.6,62.1,29.95,SSW,211,13.8,13.8,77,0.00,CLR,,0.00,WeatherDisplay:10.37,2013-02-18 17:42:00,
2013-02-18 11:47:00,70.2,63.0,29.95,South,169,11.5,11.5,78,0.00,CLR,,0.00,WeatherDisplay:10.37,2013-02-18 17:47:00,
2013-02-18 11:52:00,70.8,62.1,29.94,South,169,15.0,15.0,74,0.00,CLR,,0.00,WeatherDisplay:10.37,2013-02-18 17:52:00,
2013-02-18 11:57:00,71.3,62.6,29.94,South,183,12.7,12.7,74,0.00,CLR,,0.00,WeatherDisplay:10.37,2013-02-18 17:57:00,
2013-02-18 12:02:00,72.5,63.0,29.93,SSW,212,13.8,13.8,72,0.00,CLR,,0.00,WeatherDisplay:10.37,2013-02-18 18:02:00,
2013-02-18 12:07:00,72.3,62.4,29.93,SW,217,19.6,19.6,71,0.00,CLR,,0.00,WeatherDisplay:10.37,2013-02-18 18:07:00,
2013-02-18 12:12:00,71.8,61.9,29.92,SSW,200,15.0,15.0,71,0.00,CLR,,0.00,WeatherDisplay:10.37,2013-02-18 18:12:00,
2013-02-18 12:17:00,72.3,62.0,29.92,SSW,212,15.0,15.0,70,0.00,CLR,,0.00,WeatherDisplay:10.37,2013-02-18 18:17:00,
2013-02-18 12:22:00,72.0,61.3,29.91,SW,228,17.3,17.3,69,0.00,CLR,,0.00,WeatherDisplay:10.37,2013-02-18 18:22:00,
2013-02-18 12:27:00,72.2,61.0,29.91,SSW,208,19.6,19.6,68,0.00,CLR,,0.00,WeatherDisplay:10.37,2013-02-18 18:27:00,
2013-02-18 12:32:00,72.8,61.6,29.90,SW,214,18.4,18.4,68,0.00,CLR,,0.00,WeatherDisplay:10.37,2013-02-18 18:32:00,
2013-02-18 12:37:00,73.0,61.0,29.91,SW,228,20.7,20.7,66,0.00,CLR,,0.00,WeatherDisplay:10.37,2013-02-18 18:37:00,
2013-02-18 12:42:00,72.7,60.7,29.90,SW,219,19.6,19.6,66,0.00,CLR,,0.00,WeatherDisplay:10.37,2013-02-18 18:42:00,
2013-02-18 12:47:00,73.1,60.6,29.90,SSW,204,17.3,17.3,65,0.00,CLR,,0.00,WeatherDisplay:10.37,2013-02-18 18:47:00,
2013-02-18 12:52:00,73.6,61.1,29.90,SW,232,19.6,19.6,65,0.00,CLR,,0.00,WeatherDisplay:10.37,2013-02-18 18:52:00,
2013-02-18 12:57:00,74.0,61.0,29.90,SSW,204,21.9,21.9,64,0.00,CLR,,0.00,WeatherDisplay:10.37,2013-02-18 18:57:00,
2013-02-18 13:02:00,74.0,60.2,29.90,SSW,193,17.3,17.3,62,0.00,CLR,,0.00,WeatherDisplay:10.37,2013-02-18 19:02:00,
2013-02-18 13:07:00,74.0,60.2,29.89,SSW,211,19.6,19.6,62,0.00,CLR,,0.00,WeatherDisplay:10.37,2013-02-18 19:07:00,
2013-02-18 13:12:00,74.3,60.4,29.89,SW,229,13.8,13.8,62,0.00,CLR,,0.00,WeatherDisplay:10.37,2013-02-18 19:12:00,
2013-02-18 13:17:00,74.5,59.2,29.89,SW,226,20.7,20.7,59,0.00,CLR,,0.00,WeatherDisplay:10.37,2013-02-18 19:17:00,
2013-02-18 13:22:00,74.5,59.2,29.88,SW,227,18.4,18.4,59,0.00,CLR,,0.00,WeatherDisplay:10.37,2013-02-18 19:22:00,
2013-02-18 13:27:00,74.8,59.5,29.88,SSW,207,17.3,17.3,59,0.00,CLR,,0.00,WeatherDisplay:10.37,2013-02-18 19:27:00,
2013-02-18 13:32:00,74.8,59.0,29.88,SSE,163,13.8,13.8,58,0.00,CLR,,0.00,WeatherDisplay:10.37,2013-02-18 19:32:00,
2013-02-18 13:37:00,75.1,59.3,29.87,SW,221,12.7,12.7,58,0.00,CLR,,0.00,WeatherDisplay:10.37,2013-02-18 19:37:00,
2013-02-18 13:42:00,74.9,58.6,29.87,West,260,19.6,19.6,57,0.00,CLR,,0.00,WeatherDisplay:10.37,2013-02-18 19:42:00,
2013-02-18 13:47:00,74.8,58.5,29.87,SSW,205,10.4,10.4,57,0.00,CLR,,0.00,WeatherDisplay:10.37,2013-02-18 19:47:00,
2013-02-18 13:52:00,75.4,58.6,29.86,WSW,249,17.3,17.3,56,0.00,CLR,,0.00,WeatherDisplay:10.37,2013-02-18 19:52:00,
2013-02-18 13:57:00,75.7,57.4,29.86,WSW,239,16.1,16.1,53,0.00,CLR,,0.00,WeatherDisplay:10.37,2013-02-18 19:57:00,
2013-02-18 14:02:00,76.0,58.2,29.86,SSW,193,12.7,12.7,54,0.00,CLR,,0.00,WeatherDisplay:10.37,2013-02-18 20:02:00,
2013-02-18 14:07:00,76.2,58.3,29.86,SSW,207,17.3,17.3,54,0.00,CLR,,0.00,WeatherDisplay:10.37,2013-02-18 20:07:00,
2013-02-18 14:12:00,76.5,57.6,29.86,SW,222,11.5,11.5,52,0.00,CLR,,0.00,WeatherDisplay:10.37,2013-02-18 20:12:00,
2013-02-18 14:17:00,76.3,56.3,29.86,WSW,245,12.7,12.7,50,0.00,CLR,,0.00,WeatherDisplay:10.37,2013-02-18 20:17:00,
2013-02-18 14:23:00,76.8,56.2,29.85,SW,235,17.3,17.3,49,0.00,CLR,,0.00,WeatherDisplay:10.37,2013-02-18 20:23:00,
2013-02-18 14:28:00,76.7,56.7,29.85,SSW,210,11.5,11.5,50,0.00,CLR,,0.00,WeatherDisplay:10.37,2013-02-18 20:28:00,
2013-02-18 14:33:00,77.0,56.4,29.85,WSW,238,18.4,18.4,49,0.00,CLR,,0.00,WeatherDisplay:10.37,2013-02-18 20:33:00,
2013-02-18 14:38:00,77.0,56.4,29.85,SSW,207,15.0,15.0,49,0.00,CLR,,0.00,WeatherDisplay:10.37,2013-02-18 20:38:00,
2013-02-18 14:43:00,77.6,54.6,29.85,WSW,249,17.3,17.3,45,0.00,CLR,,0.00,WeatherDisplay:10.37,2013-02-18 20:43:00,
2013-02-18 14:48:00,77.6,54.6,29.85,WSW,238,11.5,11.5,45,0.00,CLR,,0.00,WeatherDisplay:10.37,2013-02-18 20:48:00,
2013-02-18 14:53:00,77.6,55.2,29.85,WSW,252,14.0,14.0,46,0.00,CLR,,0.00,WeatherDisplay:10.37,2013-02-18 20:53:00,
2013-02-18 14:58:00,77.7,54.7,29.85,WSW,243,11.5,11.5,45,0.00,CLR,,0.00,WeatherDisplay:10.37,2013-02-18 20:58:00,
2013-02-18 15:03:00,78.1,55.6,29.85,SSW,204,11.5,11.5,46,0.00,CLR,,0.00,WeatherDisplay:10.37,2013-02-18 21:03:00,
2013-02-18 15:08:00,77.8,55.4,29.84,SW,215,11.5,11.5,46,0.00,CLR,,0.00,WeatherDisplay:10.37,2013-02-18 21:08:00,
2013-02-18 15:13:00,78.3,55.2,29.84,WSW,252,11.5,11.5,45,0.00,CLR,,0.00,WeatherDisplay:10.37,2013-02-18 21:13:00,
2013-02-18 15:18:00,78.1,53.8,29.84,WSW,258,11.5,11.5,43,0.00,CLR,,0.00,WeatherDisplay:10.37,2013-02-18 21:18:00,
2013-02-18 15:23:00,78.0,53.7,29.84,West,273,12.7,12.7,43,0.00,CLR,,0.00,WeatherDisplay:10.37,2013-02-18 21:23:00,
2013-02-18 15:28:00,78.2,53.9,29.84,West,276,19.6,19.6,43,0.00,CLR,,0.00,WeatherDisplay:10.37,2013-02-18 21:28:00,
2013-02-18 15:33:00,78.4,53.4,29.83,SW,235,16.1,16.1,42,0.00,CLR,,0.00,WeatherDisplay:10.37,2013-02-18 21:33:00,
2013-02-18 15:38:00,78.3,53.3,29.84,SW,216,16.1,16.1,42,0.00,CLR,,0.00,WeatherDisplay:10.37,2013-02-18 21:38:00,
2013-02-18 15:43:00,78.3,53.3,29.84,West,269,11.5,11.5,42,0.00,CLR,,0.00,WeatherDisplay:10.37,2013-02-18 21:43:00,
2013-02-18 15:48:00,78.3,54.0,29.84,SSW,207,13.8,13.8,43,0.00,CLR,,0.00,WeatherDisplay:10.37,2013-02-18 21:48:00,
2013-02-18 15:53:00,78.9,53.9,29.84,West,264,12.7,12.7,42,0.00,CLR,,0.00,WeatherDisplay:10.37,2013-02-18 21:53:00,
2013-02-18 15:58:00,78.8,53.1,29.83,SSW,207,11.5,11.5,41,0.00,CLR,,0.00,WeatherDisplay:10.37,2013-02-18 21:58:00,
2013-02-18 16:03:00,78.8,53.8,29.83,SW,219,10.4,10.4,42,0.00,CLR,,0.00,WeatherDisplay:10.37,2013-02-18 22:03:00,
2013-02-18 16:08:00,78.9,51.1,29.84,West,260,11.5,11.5,38,0.00,CLR,,0.00,WeatherDisplay:10.37,2013-02-18 22:08:00,
2013-02-18 16:13:00,79.2,52.1,29.84,SW,224,16.1,16.1,39,0.00,CLR,,0.00,WeatherDisplay:10.37,2013-02-18 22:13:00,
2013-02-18 16:18:00,79.1,52.0,29.84,WSW,238,10.4,10.4,39,0.00,CLR,,0.00,WeatherDisplay:10.37,2013-02-18 22:18:00,
2013-02-18 16:23:00,79.1,52.7,29.84,WSW,239,11.5,11.5,40,0.00,CLR,,0.00,WeatherDisplay:10.37,2013-02-18 22:23:00,
2013-02-18 16:28:00,79.6,51.8,29.83,West,260,10.4,10.4,38,0.00,CLR,,0.00,WeatherDisplay:10.37,2013-02-18 22:28:00,
2013-02-18 16:33:00,79.3,50.8,29.83,WSW,252,11.5,11.5,37,0.00,CLR,,0.00,WeatherDisplay:10.37,2013-02-18 22:33:00,
2013-02-18 16:38:00,79.3,50.8,29.83,SW,229,12.7,12.7,37,0.00,CLR,,0.00,WeatherDisplay:10.37,2013-02-18 22:38:00,
2013-02-18 16:43:00,79.3,51.5,29.83,SW,236,8.1,8.1,38,0.00,CLR,,0.00,WeatherDisplay:10.37,2013-02-18 22:43:00,
2013-02-18 16:48:00,79.5,50.9,29.84,SW,218,11.5,11.5,37,0.00,CLR,,0.00,WeatherDisplay:10.37,2013-02-18 22:48:00,
2013-02-18 16:53:00,79.3,50.8,29.84,WSW,252,11.5,11.5,37,0.00,CLR,,0.00,WeatherDisplay:10.37,2013-02-18 22:53:00,
2013-02-18 16:58:00,79.2,50.7,29.84,SW,221,10.4,10.4,37,0.00,CLR,,0.00,WeatherDisplay:10.37,2013-02-18 22:58:00,
2013-02-18 17:03:00,79.3,51.5,29.84,SSW,210,11.5,11.5,38,0.00,CLR,,0.00,WeatherDisplay:10.37,2013-02-18 23:03:00,
2013-02-18 17:08:00,79.4,50.1,29.84,SW,236,10.4,10.4,36,0.00,CLR,,0.00,WeatherDisplay:10.37,2013-02-18 23:08:00,
2013-02-18 17:13:00,79.3,50.8,29.84,SW,217,8.1,8.1,37,0.00,CLR,,0.00,WeatherDisplay:10.37,2013-02-18 23:13:00,
2013-02-18 17:18:00,79.3,50.8,29.84,SW,233,11.5,11.5,37,0.00,CLR,,0.00,WeatherDisplay:10.37,2013-02-18 23:18:00,
2013-02-18 17:24:00,79.3,50.8,29.84,SW,214,11.5,11.5,37,0.00,CLR,,0.00,WeatherDisplay:10.37,2013-02-18 23:24:00,
2013-02-18 17:29:00,79.1,50.6,29.84,WSW,239,11.5,11.5,37,0.00,CLR,,0.00,WeatherDisplay:10.37,2013-02-18 23:29:00,
2013-02-18 17:34:00,79.0,50.5,29.84,SW,214,8.1,8.1,37,0.00,CLR,,0.00,WeatherDisplay:10.37,2013-02-18 23:34:00,
2013-02-18 17:39:00,78.8,51.0,29.84,SSW,204,5.8,5.9,38,0.00,CLR,,0.00,WeatherDisplay:10.37,2013-02-18 23:39:00,
2013-02-18 17:44:00,78.7,51.7,29.85,South,183,6.9,6.9,39,0.00,CLR,,0.00,WeatherDisplay:10.37,2013-02-18 23:44:00,
2013-02-18 17:49:00,78.5,50.8,29.85,SW,225,11.5,11.5,38,0.00,CLR,,0.00,WeatherDisplay:10.37,2013-02-18 23:49:00,
2013-02-18 17:54:00,78.2,51.2,29.85,SSW,210,6.9,6.9,39,0.00,CLR,,0.00,WeatherDisplay:10.37,2013-02-18 23:54:00,
2013-02-18 17:59:00,77.8,51.5,29.85,SSW,200,4.6,4.6,40,0.00,CLR,,0.00,WeatherDisplay:10.37,2013-02-18 23:59:00,
2013-02-18 18:04:00,77.2,51.7,29.85,South,185,5.0,5.0,41,0.00,CLR,,0.00,WeatherDisplay:10.37,2013-02-19 00:04:00,
2013-02-18 18:09:00,76.6,51.8,29.85,SSE,166,4.6,4.6,42,0.00,CLR,,0.00,WeatherDisplay:10.37,2013-02-19 00:09:00,
2013-02-18 18:14:00,76.0,51.2,29.86,South,172,4.6,4.6,42,0.00,CLR,,0.00,WeatherDisplay:10.37,2013-02-19 00:14:00,
2013-02-18 18:19:00,75.4,51.3,29.86,SSE,165,3.5,3.5,43,0.00,CLR,,0.00,WeatherDisplay:10.37,2013-02-19 00:19:00,
2013-02-18 18:24:00,74.8,51.4,29.86,South,176,3.5,3.5,44,0.00,CLR,,0.00,WeatherDisplay:10.37,2013-02-19 00:24:00,
2013-02-18 18:29:00,74.2,51.5,29.86,South,179,3.5,3.5,45,0.00,CLR,,0.00,WeatherDisplay:10.37,2013-02-19 00:29:00,
2013-02-18 18:34:00,73.8,51.7,29.86,South,172,3.5,3.5,46,0.00,CLR,,0.00,WeatherDisplay:10.37,2013-02-19 00:34:00,
2013-02-18 18:39:00,73.2,51.2,29.87,South,188,2.3,2.3,46,0.00,CLR,,0.00,WeatherDisplay:10.37,2013-02-19 00:39:00,
2013-02-18 18:44:00,72.9,51.5,29.87,SSE,160,2.3,2.3,47,0.00,CLR,,0.00,WeatherDisplay:10.37,2013-02-19 00:44:00,
2013-02-18 18:49:00,72.7,51.3,29.87,SSE,153,2.3,2.3,47,0.00,CLR,,0.00,WeatherDisplay:10.37,2013-02-19 00:49:00,
2013-02-18 18:54:00,72.3,50.9,29.88,SSE,156,1.1,1.1,47,0.00,CLR,,0.00,WeatherDisplay:10.37,2013-02-19 00:54:00,
2013-02-18 18:59:00,71.8,51.0,29.88,SSE,162,1.1,1.1,48,0.00,CLR,,0.00,WeatherDisplay:10.37,2013-02-19 00:59:00,
2013-02-18 19:04:00,71.2,50.5,29.88,SSW,195,1.1,1.1,48,0.00,CLR,,0.00,WeatherDisplay:10.37,2013-02-19 01:04:00,
2013-02-18 19:09:00,70.7,50.6,29.88,SSW,198,2.3,2.3,49,0.00,CLR,,0.00,WeatherDisplay:10.37,2013-02-19 01:09:00,
2013-02-18 19:14:00,70.3,50.2,29.89,SSW,207,2.3,2.3,49,0.00,CLR,,0.00,WeatherDisplay:10.37,2013-02-19 01:14:00,
2013-02-18 19:19:00,69.8,50.3,29.89,SW,222,2.3,2.3,50,0.00,CLR,,0.00,WeatherDisplay:10.37,2013-02-19 01:19:00,
2013-02-18 19:24:00,69.9,50.4,29.90,SW,228,3.5,3.5,50,0.00,CLR,,0.00,WeatherDisplay:10.37,2013-02-19 01:24:00,
2013-02-18 19:29:00,70.2,50.1,29.90,SW,217,5.8,5.8,49,0.00,CLR,,0.00,WeatherDisplay:10.37,2013-02-19 01:29:00,
2013-02-18 19:34:00,70.6,50.0,29.90,SW,226,5.8,5.8,48,0.00,CLR,,0.00,WeatherDisplay:10.37,2013-02-19 01:34:00,
2013-02-18 19:39:00,71.0,50.3,29.91,SW,215,9.2,9.2,48,0.00,CLR,,0.00,WeatherDisplay:10.37,2013-02-19 01:39:00,
2013-02-18 19:44:00,71.3,51.1,29.91,SSW,198,6.9,6.9,49,0.00,CLR,,0.00,WeatherDisplay:10.37,2013-02-19 01:44:00,
2013-02-18 19:50:00,71.6,51.4,29.92,SW,221,4.6,4.6,49,0.00,CLR,,0.00,WeatherDisplay:10.37,2013-02-19 01:50:00,
2013-02-18 19:55:00,70.8,50.1,29.92,WNW,283,6.9,6.9,48,0.00,CLR,,0.00,WeatherDisplay:10.37,2013-02-19 01:55:00,
2013-02-18 20:00:00,69.6,52.2,29.92,SW,229,4.6,4.6,54,0.00,CLR,,0.00,WeatherDisplay:10.37,2013-02-19 02:00:00,
2013-02-18 20:05:00,70.9,52.4,29.92,SW,214,3.5,3.5,52,0.00,CLR,,0.00,WeatherDisplay:10.37,2013-02-19 02:05:00,
2013-02-18 20:10:00,71.3,51.1,29.93,NNW,334,9.2,9.2,49,0.00,CLR,,0.00,WeatherDisplay:10.37,2013-02-19 02:10:00,
2013-02-18 20:15:00,71.7,51.5,29.94,NNW,340,6.9,6.9,49,0.00,CLR,,0.00,WeatherDisplay:10.37,2013-02-19 02:15:00,
2013-02-18 20:20:00,71.3,47.6,29.94,NW,318,6.0,6.0,43,0.00,CLR,,0.00,WeatherDisplay:10.37,2013-02-19 02:20:00,
2013-02-18 20:25:00,71.4,41.6,29.95,NNW,329,5.8,5.8,34,0.00,CLR,,0.00,WeatherDisplay:10.37,2013-02-19 02:25:00,
2013-02-18 20:30:00,71.1,38.9,29.95,NNW,343,3.5,5.0,31,0.00,CLR,,0.00,WeatherDisplay:10.37,2013-02-19 02:30:00,
2013-02-18 20:35:00,70.9,36.1,29.95,NNW,338,9.2,9.2,28,0.00,CLR,,0.00,WeatherDisplay:10.37,2013-02-19 02:35:00,
2013-02-18 20:40:00,70.9,35.2,29.95,NNW,345,5.8,5.8,27,0.00,CLR,,0.00,WeatherDisplay:10.37,2013-02-19 02:40:00,
2013-02-18 20:45:00,71.1,33.5,29.96,NNE,20,9.2,9.2,25,0.00,CLR,,0.00,WeatherDisplay:10.37,2013-02-19 02:45:00,
2013-02-18 20:50:00,71.0,33.4,29.96,North,6,5.8,5.8,25,0.00,CLR,,0.00,WeatherDisplay:10.37,2013-02-19 02:50:00,
2013-02-18 20:55:00,71.0,31.3,29.96,NE,34,6.9,6.9,23,0.00,CLR,,0.00,WeatherDisplay:10.37,2013-02-19 02:55:00,
2013-02-18 21:01:00,71.4,29.4,29.97,NNE,20,9.2,9.2,21,0.00,CLR,,0.00,WeatherDisplay:10.37,2013-02-19 03:01:00,
2013-02-18 21:06:00,71.5,28.3,29.98,North,5,9.2,9.2,20,0.00,CLR,,0.00,WeatherDisplay:10.37,2013-02-19 03:06:00,
2013-02-18 21:11:00,71.2,29.2,29.98,NNW,345,10.4,10.4,21,0.00,CLR,,0.00,WeatherDisplay:10.37,2013-02-19 03:11:00,
2013-02-18 21:16:00,70.9,29.0,29.99,NE,37,6.9,6.9,21,0.00,CLR,,0.00,WeatherDisplay:10.37,2013-02-19 03:16:00,
2013-02-18 21:21:00,70.3,28.5,29.99,North,1,16.1,16.1,21,0.00,CLR,,0.00,WeatherDisplay:10.37,2013-02-19 03:21:00,
2013-02-18 21:26:00,70.0,28.2,30.00,NE,38,11.5,11.5,21,0.00,CLR,,0.00,WeatherDisplay:10.37,2013-02-19 03:26:00,
2013-02-18 21:31:00,69.3,29.9,30.00,NNE,25,13.8,13.8,23,0.00,CLR,,0.00,WeatherDisplay:10.37,2013-02-19 03:31:00,
2013-02-18 21:36:00,68.6,30.3,30.00,NNE,30,13.8,13.8,24,0.00,CLR,,0.00,WeatherDisplay:10.37,2013-02-19 03:36:00,
2013-02-18 21:41:00,68.0,30.8,30.01,NE,41,13.8,13.8,25,0.00,CLR,,0.00,WeatherDisplay:10.37,2013-02-19 03:41:00,
2013-02-18 21:46:00,67.4,30.3,30.02,NNE,28,11.5,11.5,25,0.00,CLR,,0.00,WeatherDisplay:10.37,2013-02-19 03:46:00,
2013-02-18 21:51:00,66.7,31.6,30.02,NNE,17,12.7,12.7,27,0.00,CLR,,0.00,WeatherDisplay:10.37,2013-02-19 03:51:00,
2013-02-18 21:57:00,66.1,31.1,30.02,NNE,15,10.4,10.4,27,0.00,CLR,,0.00,WeatherDisplay:10.37,2013-02-19 03:57:00,
2013-02-18 22:02:00,65.4,31.4,30.02,North,9,10.4,10.4,28,0.00,CLR,,0.00,WeatherDisplay:10.37,2013-02-19 04:02:00,
2013-02-18 22:07:00,65.0,31.9,30.03,North,360,12.7,12.7,29,0.00,CLR,,0.00,WeatherDisplay:10.37,2013-02-19 04:07:00,
2013-02-18 22:12:00,64.6,32.4,30.03,North,10,8.1,8.1,30,0.00,CLR,,0.00,WeatherDisplay:10.37,2013-02-19 04:12:00,
2013-02-18 22:17:00,64.4,32.3,30.03,NNE,25,11.5,11.5,30,0.00,CLR,,0.00,WeatherDisplay:10.37,2013-02-19 04:17:00,
2013-02-18 22:22:00,64.1,32.8,30.03,NNE,28,9.2,9.2,31,0.00,CLR,,0.00,WeatherDisplay:10.37,2013-02-19 04:22:00,
2013-02-18 22:27:00,63.9,32.6,30.03,NE,38,11.5,11.5,31,0.00,CLR,,0.00,WeatherDisplay:10.37,2013-02-19 04:27:00,
2013-02-18 22:32:00,63.6,33.2,30.04,NNE,23,13.8,13.8,32,0.00,CLR,,0.00,WeatherDisplay:10.37,2013-02-19 04:32:00,
2013-02-18 22:37:00,63.4,33.0,30.04,NNE,21,11.5,11.5,32,0.00,CLR,,0.00,WeatherDisplay:10.37,2013-02-19 04:37:00,
2013-02-18 22:42:00,62.8,33.2,30.04,NNE,25,12.7,12.7,33,0.00,CLR,,0.00,WeatherDisplay:10.37,2013-02-19 04:42:00,
2013-02-18 22:47:00,62.4,33.6,30.05,NNE,20,10.4,10.4,34,0.00,CLR,,0.00,WeatherDisplay:10.37,2013-02-19 04:47:00,
2013-02-18 22:52:00,62.3,33.6,30.05,North,357,11.5,11.5,34,0.00,CLR,,0.00,WeatherDisplay:10.37,2013-02-19 04:52:00,
2013-02-18 22:57:00,62.2,33.5,30.05,NNE,15,9.2,9.2,34,0.00,CLR,,0.00,WeatherDisplay:10.37,2013-02-19 04:57:00,
2013-02-18 23:00:00,62.2,33.5,30.05,NNW,333,11.5,11.5,34,0.00,CLR,,0.00,WeatherDisplay:10.37,2013-02-19 05:00:00,
2013-02-18 23:02:00,62.2,33.5,30.05,NE,48,12.7,12.7,34,0.00,CLR,,0.00,WeatherDisplay:10.37,2013-02-19 05:02:00,
2013-02-18 23:07:00,62.1,34.1,30.05,NE,37,10.4,10.4,35,0.00,CLR,,0.00,WeatherDisplay:10.37,2013-02-19 05:07:00,
2013-02-18 23:12:00,61.9,33.9,30.05,NNE,33,11.5,11.5,35,0.00,CLR,,0.00,WeatherDisplay:10.37,2013-02-19 05:12:00,
2013-02-18 23:17:00,61.6,33.7,30.06,ENE,58,11.5,11.5,35,0.00,CLR,,0.00,WeatherDisplay:10.37,2013-02-19 05:17:00,
2013-02-18 23:22:00,61.3,34.1,30.05,NNE,25,11.5,11.5,36,0.00,CLR,,0.00,WeatherDisplay:10.37,2013-02-19 05:22:00,
2013-02-18 23:27:00,61.1,33.9,30.05,ENE,60,11.5,11.5,36,0.00,CLR,,0.00,WeatherDisplay:10.37,2013-02-19 05:27:00,
2013-02-18 23:32:00,60.7,34.3,30.05,NE,47,6.9,6.9,37,0.00,CLR,,0.00,WeatherDisplay:10.37,2013-02-19 05:32:00,
2013-02-18 23:37:00,60.3,33.9,30.05,NNE,25,8.1,8.1,37,0.00,CLR,,0.00,WeatherDisplay:10.37,2013-02-19 05:37:00,
2013-02-18 23:42:00,60.0,34.3,30.05,NE,36,11.5,11.5,38,0.00,CLR,,0.00,WeatherDisplay:10.37,2013-02-19 05:42:00,
2013-02-18 23:47:00,59.7,34.0,30.05,NNE,25,11.5,11.5,38,0.00,CLR,,0.00,WeatherDisplay:10.37,2013-02-19 05:47:00,
2013-02-18 23:52:00,59.7,34.0,30.05,NNE,25,11.5,11.5,38,0.00,CLR,,0.00,WeatherDisplay:10.37,2013-02-19 05:52:00,
2013-02-18 23:57:00,59.8,34.1,30.06,NNE,17,10.4,10.4,38,0.00,CLR,,0.00,WeatherDisplay:10.37,2013-02-19 05:57:00,